Mackey, Indiana
Current Conditions -  °F | °C
As of 8:54 PM on Friday 28 Nov 2014 (Local Time) from KEVV Reporting Station
Clear Clear  
Wind Chill: 33°   Ceiling: Unl
Heat Index: 37°   Visibility: 10mi
Dew Point: 26°   Wind: 5mph
Humidity: 65%   Direction: 150°SSE
Pressure: 30.06"   Gusts: NA
Location:  38.25°N, 87.39°W
Report Text: KEVV 290254Z 15004KT 10SM CLR 03/M03 A3006 RMK AO2 SLP182 T00281033 58014
Loading
Personal Weather Stations






























Interactive Weather Map New forecast layout! Learn more

10-Day Weather Forecast

Advertisements
Track Severe Weather on mobile